sensor_id;sensor_type;location;lat;lon;timestamp;P1;durP1;ratioP1;P2;durP2;ratioP2
50056;SDS011;36875;49.468;11.200;2023-04-06T00:01:29;1.20;;;0.90;;
50056;SDS011;36875;49.468;11.200;2023-04-06T00:03:55;1.58;;;0.90;;
50056;SDS011;36875;49.468;11.200;2023-04-06T00:06:20;1.95;;;1.08;;
50056;SDS011;36875;49.468;11.200;2023-04-06T00:08:46;1.35;;;1.00;;
50056;SDS011;36875;49.468;11.200;2023-04-06T00:11:12;1.38;;;1.02;;
50056;SDS011;36875;49.468;11.200;2023-04-06T00:13:38;1.30;;;0.65;;
50056;SDS011;36875;49.468;11.200;2023-04-06T00:16:03;2.25;;;1.00;;
50056;SDS011;36875;49.468;11.200;2023-04-06T00:18:32;1.27;;;0.90;;
50056;SDS011;36875;49.468;11.200;2023-04-06T00:20:57;1.48;;;0.93;;
50056;SDS011;36875;49.468;11.200;2023-04-06T00:23:23;2.00;;;0.98;;
50056;SDS011;36875;49.468;11.200;2023-04-06T00:25:49;1.10;;;0.95;;
50056;SDS011;36875;49.468;11.200;2023-04-06T00:28:14;1.25;;;0.80;;
50056;SDS011;36875;49.468;11.200;2023-04-06T00:30:40;1.27;;;0.82;;
50056;SDS011;36875;49.468;11.200;2023-04-06T00:33:06;1.40;;;1.02;;
50056;SDS011;36875;49.468;11.200;2023-04-06T00:35:33;2.08;;;0.80;;
50056;SDS011;36875;49.468;11.200;2023-04-06T00:37:59;0.75;;;0.73;;
50056;SDS011;36875;49.468;11.200;2023-04-06T00:40:25;0.98;;;0.90;;
50056;SDS011;36875;49.468;11.200;2023-04-06T00:42:52;1.17;;;0.90;;
50056;SDS011;36875;49.468;11.200;2023-04-06T00:45:18;0.88;;;0.60;;
50056;SDS011;36875;49.468;11.200;2023-04-06T00:47:43;2.38;;;0.85;;
50056;SDS011;36875;49.468;11.200;2023-04-06T00:50:09;1.10;;;0.65;;
50056;SDS011;36875;49.468;11.200;2023-04-06T00:52:36;1.33;;;0.80;;
50056;SDS011;36875;49.468;11.200;2023-04-06T00:55:02;1.83;;;1.10;;
50056;SDS011;36875;49.468;11.200;2023-04-06T00:57:28;1.45;;;0.70;;
50056;SDS011;36875;49.468;11.200;2023-04-06T00:59:54;1.63;;;0.82;;
50056;SDS011;36875;49.468;11.200;2023-04-06T01:02:19;0.75;;;0.70;;
50056;SDS011;36875;49.468;11.200;2023-04-06T01:04:45;2.03;;;0.88;;
50056;SDS011;36875;49.468;11.200;2023-04-06T01:07:11;1.38;;;0.88;;
50056;SDS011;36875;49.468;11.200;2023-04-06T01:09:37;2.15;;;0.85;;
50056;SDS011;36875;49.468;11.200;2023-04-06T01:12:06;0.98;;;0.80;;
50056;SDS011;36875;49.468;11.200;2023-04-06T01:14:31;1.25;;;0.85;;
50056;SDS011;36875;49.468;11.200;2023-04-06T01:16:57;1.27;;;0.63;;
50056;SDS011;36875;49.468;11.200;2023-04-06T01:19:24;0.80;;;0.70;;
50056;SDS011;36875;49.468;11.200;2023-04-06T01:21:50;1.30;;;0.90;;
50056;SDS011;36875;49.468;11.200;2023-04-06T01:24:19;1.67;;;0.90;;
50056;SDS011;36875;49.468;11.200;2023-04-06T01:26:45;0.63;;;0.63;;
50056;SDS011;36875;49.468;11.200;2023-04-06T01:29:11;1.05;;;0.73;;
50056;SDS011;36875;49.468;11.200;2023-04-06T01:31:36;0.80;;;0.75;;
50056;SDS011;36875;49.468;11.200;2023-04-06T01:34:02;1.45;;;0.80;;
50056;SDS011;36875;49.468;11.200;2023-04-06T01:36:28;1.10;;;0.70;;
50056;SDS011;36875;49.468;11.200;2023-04-06T01:38:53;1.63;;;0.73;;
50056;SDS011;36875;49.468;11.200;2023-04-06T01:41:20;0.85;;;0.80;;
50056;SDS011;36875;49.468;11.200;2023-04-06T01:43:46;1.13;;;0.82;;
50056;SDS011;36875;49.468;11.200;2023-04-06T01:46:12;0.93;;;0.80;;
50056;SDS011;36875;49.468;11.200;2023-04-06T01:48:38;0.90;;;0.77;;
50056;SDS011;36875;49.468;11.200;2023-04-06T01:51:03;1.42;;;0.80;;
50056;SDS011;36875;49.468;11.200;2023-04-06T01:53:29;0.65;;;0.65;;
50056;SDS011;36875;49.468;11.200;2023-04-06T01:55:55;0.82;;;0.80;;
50056;SDS011;36875;49.468;11.200;2023-04-06T01:58:21;1.10;;;0.80;;
50056;SDS011;36875;49.468;11.200;2023-04-06T02:00:47;1.27;;;0.75;;
50056;SDS011;36875;49.468;11.200;2023-04-06T02:03:13;1.15;;;0.90;;
50056;SDS011;36875;49.468;11.200;2023-04-06T02:05:39;1.55;;;0.82;;
50056;SDS011;36875;49.468;11.200;2023-04-06T02:08:05;1.00;;;0.70;;
50056;SDS011;36875;49.468;11.200;2023-04-06T02:10:31;1.00;;;0.88;;
50056;SDS011;36875;49.468;11.200;2023-04-06T02:12:57;0.98;;;0.70;;
50056;SDS011;36875;49.468;11.200;2023-04-06T02:15:24;2.50;;;0.70;;
50056;SDS011;36875;49.468;11.200;2023-04-06T02:17:50;1.02;;;0.70;;
50056;SDS011;36875;49.468;11.200;2023-04-06T02:20:16;1.08;;;0.73;;
50056;SDS011;36875;49.468;11.200;2023-04-06T02:22:41;1.17;;;0.75;;
50056;SDS011;36875;49.468;11.200;2023-04-06T02:25:07;1.00;;;0.60;;
50056;SDS011;36875;49.468;11.200;2023-04-06T02:27:33;1.13;;;0.70;;
50056;SDS011;36875;49.468;11.200;2023-04-06T02:29:59;1.15;;;0.77;;
50056;SDS011;36875;49.468;11.200;2023-04-06T02:32:26;0.90;;;0.70;;
50056;SDS011;36875;49.468;11.200;2023-04-06T02:34:52;1.10;;;0.90;;
50056;SDS011;36875;49.468;11.200;2023-04-06T02:37:17;0.80;;;0.65;;
50056;SDS011;36875;49.468;11.200;2023-04-06T02:39:43;0.88;;;0.70;;
50056;SDS011;36875;49.468;11.200;2023-04-06T02:42:08;0.70;;;0.55;;
50056;SDS011;36875;49.468;11.200;2023-04-06T02:44:34;1.02;;;0.70;;
50056;SDS011;36875;49.468;11.200;2023-04-06T02:47:00;0.98;;;0.77;;
50056;SDS011;36875;49.468;11.200;2023-04-06T02:49:27;1.00;;;0.63;;
50056;SDS011;36875;49.468;11.200;2023-04-06T02:51:52;1.40;;;0.80;;
50056;SDS011;36875;49.468;11.200;2023-04-06T02:54:18;0.93;;;0.63;;
50056;SDS011;36875;49.468;11.200;2023-04-06T02:56:43;0.90;;;0.55;;
50056;SDS011;36875;49.468;11.200;2023-04-06T02:59:09;0.88;;;0.80;;
50056;SDS011;36875;49.468;11.200;2023-04-06T03:01:35;0.93;;;0.70;;
50056;SDS011;36875;49.468;11.200;2023-04-06T03:04:01;1.05;;;0.60;;
50056;SDS011;36875;49.468;11.200;2023-04-06T03:06:28;0.73;;;0.70;;
50056;SDS011;36875;49.468;11.200;2023-04-06T03:08:53;0.77;;;0.60;;
50056;SDS011;36875;49.468;11.200;2023-04-06T03:11:19;1.27;;;0.80;;
50056;SDS011;36875;49.468;11.200;2023-04-06T03:13:45;0.93;;;0.80;;
50056;SDS011;36875;49.468;11.200;2023-04-06T03:16:11;1.00;;;0.70;;
50056;SDS011;36875;49.468;11.200;2023-04-06T03:18:36;0.88;;;0.80;;
50056;SDS011;36875;49.468;11.200;2023-04-06T03:21:02;1.48;;;1.00;;
50056;SDS011;36875;49.468;11.200;2023-04-06T03:23:29;1.30;;;0.70;;
50056;SDS011;36875;49.468;11.200;2023-04-06T03:25:55;1.40;;;0.70;;
50056;SDS011;36875;49.468;11.200;2023-04-06T03:28:20;1.20;;;0.80;;
50056;SDS011;36875;49.468;11.200;2023-04-06T03:30:46;1.02;;;0.65;;
50056;SDS011;36875;49.468;11.200;2023-04-06T03:33:11;1.02;;;0.80;;
50056;SDS011;36875;49.468;11.200;2023-04-06T03:35:37;0.65;;;0.60;;
50056;SDS011;36875;49.468;11.200;2023-04-06T03:38:02;0.60;;;0.60;;
50056;SDS011;36875;49.468;11.200;2023-04-06T03:40:30;0.85;;;0.65;;
50056;SDS011;36875;49.468;11.200;2023-04-06T03:42:55;0.90;;;0.70;;
50056;SDS011;36875;49.468;11.200;2023-04-06T03:45:21;1.23;;;0.80;;
50056;SDS011;36875;49.468;11.200;2023-04-06T03:47:46;1.88;;;0.68;;
50056;SDS011;36875;49.468;11.200;2023-04-06T03:50:12;0.90;;;0.70;;
50056;SDS011;36875;49.468;11.200;2023-04-06T03:52:38;0.88;;;0.77;;
50056;SDS011;36875;49.468;11.200;2023-04-06T03:55:04;1.02;;;0.75;;
50056;SDS011;36875;49.468;11.200;2023-04-06T03:57:31;1.00;;;0.70;;
50056;SDS011;36875;49.468;11.200;2023-04-06T03:59:57;0.82;;;0.70;;
50056;SDS011;36875;49.468;11.200;2023-04-06T04:02:23;1.38;;;0.70;;
50056;SDS011;36875;49.468;11.200;2023-04-06T04:04:48;0.70;;;0.70;;
50056;SDS011;36875;49.468;11.200;2023-04-06T04:07:14;1.10;;;0.80;;
50056;SDS011;36875;49.468;11.200;2023-04-06T04:09:39;0.80;;;0.77;;
50056;SDS011;36875;49.468;11.200;2023-04-06T04:12:05;1.60;;;0.70;;
50056;SDS011;36875;49.468;11.200;2023-04-06T04:14:32;0.80;;;0.70;;
50056;SDS011;36875;49.468;11.200;2023-04-06T04:16:58;0.80;;;0.57;;
50056;SDS011;36875;49.468;11.200;2023-04-06T04:19:24;0.50;;;0.50;;
50056;SDS011;36875;49.468;11.200;2023-04-06T04:21:49;0.60;;;0.60;;
50056;SDS011;36875;49.468;11.200;2023-04-06T04:24:15;1.10;;;0.70;;
50056;SDS011;36875;49.468;11.200;2023-04-06T04:26:40;0.65;;;0.57;;
50056;SDS011;36875;49.468;11.200;2023-04-06T04:29:06;0.60;;;0.60;;
50056;SDS011;36875;49.468;11.200;2023-04-06T04:31:33;1.10;;;0.63;;
50056;SDS011;36875;49.468;11.200;2023-04-06T04:33:59;0.75;;;0.70;;
50056;SDS011;36875;49.468;11.200;2023-04-06T04:36:25;0.60;;;0.60;;
50056;SDS011;36875;49.468;11.200;2023-04-06T04:38:51;1.15;;;0.77;;
50056;SDS011;36875;49.468;11.200;2023-04-06T04:41:17;0.60;;;0.50;;
50056;SDS011;36875;49.468;11.200;2023-04-06T04:43:42;1.05;;;0.70;;
50056;SDS011;36875;49.468;11.200;2023-04-06T04:46:08;0.65;;;0.60;;
50056;SDS011;36875;49.468;11.200;2023-04-06T04:48:35;1.25;;;0.70;;
50056;SDS011;36875;49.468;11.200;2023-04-06T04:51:01;1.10;;;0.73;;
50056;SDS011;36875;49.468;11.200;2023-04-06T04:53:26;0.82;;;0.70;;
50056;SDS011;36875;49.468;11.200;2023-04-06T04:55:52;1.27;;;0.68;;
50056;SDS011;36875;49.468;11.200;2023-04-06T04:58:18;0.98;;;0.70;;
50056;SDS011;36875;49.468;11.200;2023-04-06T05:00:44;1.13;;;0.70;;
50056;SDS011;36875;49.468;11.200;2023-04-06T05:03:11;0.77;;;0.60;;
50056;SDS011;36875;49.468;11.200;2023-04-06T05:05:44;1.00;;;0.90;;
50056;SDS011;36875;49.468;11.200;2023-04-06T05:08:10;1.05;;;0.60;;
50056;SDS011;36875;49.468;11.200;2023-04-06T05:10:35;1.00;;;0.70;;
50056;SDS011;36875;49.468;11.200;2023-04-06T05:13:01;1.88;;;0.70;;
50056;SDS011;36875;49.468;11.200;2023-04-06T05:15:26;1.15;;;0.88;;
50056;SDS011;36875;49.468;11.200;2023-04-06T05:17:52;0.93;;;0.60;;
50056;SDS011;36875;49.468;11.200;2023-04-06T05:20:17;0.90;;;0.77;;
50056;SDS011;36875;49.468;11.200;2023-04-06T05:22:44;1.17;;;0.80;;
50056;SDS011;36875;49.468;11.200;2023-04-06T05:25:10;1.40;;;0.80;;
50056;SDS011;36875;49.468;11.200;2023-04-06T05:27:35;0.88;;;0.70;;
50056;SDS011;36875;49.468;11.200;2023-04-06T05:30:01;1.15;;;0.70;;
50056;SDS011;36875;49.468;11.200;2023-04-06T05:32:27;1.65;;;0.98;;
50056;SDS011;36875;49.468;11.200;2023-04-06T05:34:52;1.13;;;0.70;;
50056;SDS011;36875;49.468;11.200;2023-04-06T05:37:18;1.23;;;0.63;;
50056;SDS011;36875;49.468;11.200;2023-04-06T05:39:45;1.55;;;0.90;;
50056;SDS011;36875;49.468;11.200;2023-04-06T05:42:11;1.40;;;0.68;;
50056;SDS011;36875;49.468;11.200;2023-04-06T05:44:36;0.95;;;0.80;;
50056;SDS011;36875;49.468;11.200;2023-04-06T05:47:02;1.17;;;0.88;;
50056;SDS011;36875;49.468;11.200;2023-04-06T05:49:28;1.10;;;0.50;;
50056;SDS011;36875;49.468;11.200;2023-04-06T05:51:54;1.17;;;0.80;;
50056;SDS011;36875;49.468;11.200;2023-04-06T05:54:20;0.70;;;0.70;;
50056;SDS011;36875;49.468;11.200;2023-04-06T05:56:47;1.25;;;0.60;;
50056;SDS011;36875;49.468;11.200;2023-04-06T05:59:13;1.20;;;0.70;;
50056;SDS011;36875;49.468;11.200;2023-04-06T06:01:38;0.82;;;0.80;;
50056;SDS011;36875;49.468;11.200;2023-04-06T06:04:04;0.73;;;0.55;;
50056;SDS011;36875;49.468;11.200;2023-04-06T06:06:29;0.70;;;0.65;;
50056;SDS011;36875;49.468;11.200;2023-04-06T06:08:55;1.00;;;0.70;;
50056;SDS011;36875;49.468;11.200;2023-04-06T06:11:23;1.17;;;0.70;;
50056;SDS011;36875;49.468;11.200;2023-04-06T06:13:50;0.88;;;0.60;;
50056;SDS011;36875;49.468;11.200;2023-04-06T06:16:16;1.30;;;0.88;;
50056;SDS011;36875;49.468;11.200;2023-04-06T06:18:42;1.17;;;0.70;;
50056;SDS011;36875;49.468;11.200;2023-04-06T06:21:07;1.25;;;0.70;;
50056;SDS011;36875;49.468;11.200;2023-04-06T06:23:33;1.05;;;0.68;;
50056;SDS011;36875;49.468;11.200;2023-04-06T06:25:59;1.95;;;0.70;;
50056;SDS011;36875;49.468;11.200;2023-04-06T06:28:26;0.75;;;0.70;;
50056;SDS011;36875;49.468;11.200;2023-04-06T06:30:53;1.45;;;0.90;;
50056;SDS011;36875;49.468;11.200;2023-04-06T06:33:18;1.58;;;0.93;;
50056;SDS011;36875;49.468;11.200;2023-04-06T06:35:44;3.08;;;1.15;;
50056;SDS011;36875;49.468;11.200;2023-04-06T06:38:10;2.70;;;1.00;;
50056;SDS011;36875;49.468;11.200;2023-04-06T06:40:35;1.88;;;1.08;;
50056;SDS011;36875;49.468;11.200;2023-04-06T06:43:01;2.10;;;1.08;;
50056;SDS011;36875;49.468;11.200;2023-04-06T06:45:27;4.07;;;1.40;;
50056;SDS011;36875;49.468;11.200;2023-04-06T06:47:56;5.53;;;1.50;;
50056;SDS011;36875;49.468;11.200;2023-04-06T06:50:21;3.33;;;1.65;;
50056;SDS011;36875;49.468;11.200;2023-04-06T06:52:47;3.75;;;1.35;;
50056;SDS011;36875;49.468;11.200;2023-04-06T06:55:12;2.83;;;1.42;;
50056;SDS011;36875;49.468;11.200;2023-04-06T06:57:38;3.20;;;1.52;;
50056;SDS011;36875;49.468;11.200;2023-04-06T07:00:04;4.70;;;1.55;;
50056;SDS011;36875;49.468;11.200;2023-04-06T07:02:31;3.40;;;1.50;;
50056;SDS011;36875;49.468;11.200;2023-04-06T07:04:58;4.75;;;1.42;;
50056;SDS011;36875;49.468;11.200;2023-04-06T07:07:24;3.50;;;1.65;;
50056;SDS011;36875;49.468;11.200;2023-04-06T07:09:50;6.35;;;1.70;;
50056;SDS011;36875;49.468;11.200;2023-04-06T07:12:15;6.45;;;1.85;;
50056;SDS011;36875;49.468;11.200;2023-04-06T07:14:41;4.75;;;1.80;;
50056;SDS011;36875;49.468;11.200;2023-04-06T07:17:07;5.53;;;1.70;;
50056;SDS011;36875;49.468;11.200;2023-04-06T07:19:32;4.03;;;1.70;;
50056;SDS011;36875;49.468;11.200;2023-04-06T07:21:59;4.28;;;1.70;;
50056;SDS011;36875;49.468;11.200;2023-04-06T07:24:26;4.03;;;1.70;;
50056;SDS011;36875;49.468;11.200;2023-04-06T07:26:51;4.40;;;1.80;;
50056;SDS011;36875;49.468;11.200;2023-04-06T07:29:17;5.95;;;1.90;;
50056;SDS011;36875;49.468;11.200;2023-04-06T07:31:43;7.82;;;2.17;;
50056;SDS011;36875;49.468;11.200;2023-04-06T07:34:08;9.25;;;2.35;;
50056;SDS011;36875;49.468;11.200;2023-04-06T07:36:34;8.00;;;2.38;;
50056;SDS011;36875;49.468;11.200;2023-04-06T07:39:01;9.43;;;2.60;;
50056;SDS011;36875;49.468;11.200;2023-04-06T07:41:30;4.82;;;2.20;;
50056;SDS011;36875;49.468;11.200;2023-04-06T07:43:56;11.15;;;2.55;;
50056;SDS011;36875;49.468;11.200;2023-04-06T07:46:21;6.55;;;2.28;;
50056;SDS011;36875;49.468;11.200;2023-04-06T07:48:47;9.60;;;2.40;;
50056;SDS011;36875;49.468;11.200;2023-04-06T07:51:12;7.85;;;2.42;;
50056;SDS011;36875;49.468;11.200;2023-04-06T07:53:40;9.05;;;2.47;;
50056;SDS011;36875;49.468;11.200;2023-04-06T07:56:06;6.22;;;2.47;;
50056;SDS011;36875;49.468;11.200;2023-04-06T07:58:32;6.88;;;2.60;;
50056;SDS011;36875;49.468;11.200;2023-04-06T08:00:58;7.78;;;3.78;;
50056;SDS011;36875;49.468;11.200;2023-04-06T08:03:24;10.00;;;2.60;;
50056;SDS011;36875;49.468;11.200;2023-04-06T08:05:50;6.72;;;2.15;;
50056;SDS011;36875;49.468;11.200;2023-04-06T08:08:16;6.43;;;3.05;;
50056;SDS011;36875;49.468;11.200;2023-04-06T08:10:42;9.43;;;2.50;;
50056;SDS011;36875;49.468;11.200;2023-04-06T08:13:09;4.72;;;2.05;;
50056;SDS011;36875;49.468;11.200;2023-04-06T08:15:34;8.82;;;2.55;;
50056;SDS011;36875;49.468;11.200;2023-04-06T08:18:00;8.40;;;2.40;;
50056;SDS011;36875;49.468;11.200;2023-04-06T08:20:25;12.55;;;2.95;;
50056;SDS011;36875;49.468;11.200;2023-04-06T08:22:51;6.10;;;2.33;;
50056;SDS011;36875;49.468;11.200;2023-04-06T08:25:17;12.68;;;2.92;;
50056;SDS011;36875;49.468;11.200;2023-04-06T08:27:42;11.15;;;2.42;;
50056;SDS011;36875;49.468;11.200;2023-04-06T08:30:09;8.48;;;2.30;;
50056;SDS011;36875;49.468;11.200;2023-04-06T08:32:35;6.57;;;2.22;;
50056;SDS011;36875;49.468;11.200;2023-04-06T08:35:01;6.35;;;2.13;;
50056;SDS011;36875;49.468;11.200;2023-04-06T08:37:27;5.40;;;2.05;;
50056;SDS011;36875;49.468;11.200;2023-04-06T08:39:52;5.95;;;1.95;;
50056;SDS011;36875;49.468;11.200;2023-04-06T08:42:19;7.32;;;2.10;;
50056;SDS011;36875;49.468;11.200;2023-04-06T08:44:45;5.13;;;1.75;;
50056;SDS011;36875;49.468;11.200;2023-04-06T08:47:13;6.50;;;2.10;;
50056;SDS011;36875;49.468;11.200;2023-04-06T08:49:39;5.78;;;2.10;;
50056;SDS011;36875;49.468;11.200;2023-04-06T08:52:06;7.63;;;2.08;;
50056;SDS011;36875;49.468;11.200;2023-04-06T08:54:35;5.35;;;2.30;;
50056;SDS011;36875;49.468;11.200;2023-04-06T08:57:01;5.68;;;1.95;;
50056;SDS011;36875;49.468;11.200;2023-04-06T08:59:28;4.30;;;1.80;;
50056;SDS011;36875;49.468;11.200;2023-04-06T09:01:54;6.80;;;1.95;;
50056;SDS011;36875;49.468;11.200;2023-04-06T09:04:22;5.43;;;2.20;;
50056;SDS011;36875;49.468;11.200;2023-04-06T09:06:48;6.93;;;2.00;;
50056;SDS011;36875;49.468;11.200;2023-04-06T09:09:15;5.45;;;2.00;;
50056;SDS011;36875;49.468;11.200;2023-04-06T09:11:44;5.53;;;2.15;;
50056;SDS011;36875;49.468;11.200;2023-04-06T09:14:10;9.20;;;2.15;;
50056;SDS011;36875;49.468;11.200;2023-04-06T09:16:38;5.30;;;1.95;;
50056;SDS011;36875;49.468;11.200;2023-04-06T09:19:05;4.68;;;1.67;;
50056;SDS011;36875;49.468;11.200;2023-04-06T09:21:32;7.05;;;1.90;;
50056;SDS011;36875;49.468;11.200;2023-04-06T09:23:58;6.70;;;2.10;;
50056;SDS011;36875;49.468;11.200;2023-04-06T09:26:24;9.82;;;2.55;;
50056;SDS011;36875;49.468;11.200;2023-04-06T09:28:51;5.57;;;2.10;;
50056;SDS011;36875;49.468;11.200;2023-04-06T09:31:21;5.18;;;2.10;;
50056;SDS011;36875;49.468;11.200;2023-04-06T09:33:47;5.43;;;2.10;;
50056;SDS011;36875;49.468;11.200;2023-04-06T09:36:13;5.57;;;2.10;;
50056;SDS011;36875;49.468;11.200;2023-04-06T09:38:52;8.48;;;2.25;;
50056;SDS011;36875;49.468;11.200;2023-04-06T09:43:49;7.15;;;3.95;;
50056;SDS011;36875;49.468;11.200;2023-04-06T09:46:14;7.47;;;4.20;;
50056;SDS011;36875;49.468;11.200;2023-04-06T09:48:41;7.22;;;3.55;;
50056;SDS011;36875;49.468;11.200;2023-04-06T09:51:07;7.93;;;2.83;;
50056;SDS011;36875;49.468;11.200;2023-04-06T09:53:37;5.38;;;2.50;;
50056;SDS011;36875;49.468;11.200;2023-04-06T09:56:09;7.35;;;3.22;;
50056;SDS011;36875;49.468;11.200;2023-04-06T09:58:38;8.82;;;2.70;;
50056;SDS011;36875;49.468;11.200;2023-04-06T10:01:09;5.93;;;2.10;;
50056;SDS011;36875;49.468;11.200;2023-04-06T10:03:40;8.93;;;2.50;;
50056;SDS011;36875;49.468;11.200;2023-04-06T10:06:15;5.95;;;2.58;;
50056;SDS011;36875;49.468;11.200;2023-04-06T10:08:46;5.80;;;2.17;;
50056;SDS011;36875;49.468;11.200;2023-04-06T10:11:16;7.38;;;2.40;;
50056;SDS011;36875;49.468;11.200;2023-04-06T10:13:42;9.13;;;2.30;;
50056;SDS011;36875;49.468;11.200;2023-04-06T10:16:09;6.05;;;2.00;;
50056;SDS011;36875;49.468;11.200;2023-04-06T10:18:35;4.40;;;2.30;;
50056;SDS011;36875;49.468;11.200;2023-04-06T10:21:06;6.97;;;2.63;;
50056;SDS011;36875;49.468;11.200;2023-04-06T10:23:35;10.13;;;2.28;;
50056;SDS011;36875;49.468;11.200;2023-04-06T10:26:05;11.00;;;2.17;;
50056;SDS011;36875;49.468;11.200;2023-04-06T10:28:32;5.00;;;2.00;;
50056;SDS011;36875;49.468;11.200;2023-04-06T10:31:01;6.60;;;2.10;;
50056;SDS011;36875;49.468;11.200;2023-04-06T10:33:29;7.22;;;2.33;;
50056;SDS011;36875;49.468;11.200;2023-04-06T10:35:55;5.85;;;1.90;;
50056;SDS011;36875;49.468;11.200;2023-04-06T10:38:22;4.80;;;1.98;;
50056;SDS011;36875;49.468;11.200;2023-04-06T10:41:03;5.63;;;2.20;;
50056;SDS011;36875;49.468;11.200;2023-04-06T10:43:32;10.18;;;2.10;;
50056;SDS011;36875;49.468;11.200;2023-04-06T10:46:04;3.10;;;1.70;;
50056;SDS011;36875;49.468;11.200;2023-04-06T10:48:36;5.75;;;1.80;;
50056;SDS011;36875;49.468;11.200;2023-04-06T10:51:07;6.13;;;1.98;;
50056;SDS011;36875;49.468;11.200;2023-04-06T10:53:34;5.78;;;1.95;;
50056;SDS011;36875;49.468;11.200;2023-04-06T10:56:00;6.03;;;2.30;;
50056;SDS011;36875;49.468;11.200;2023-04-06T10:58:27;5.43;;;1.80;;
50056;SDS011;36875;49.468;11.200;2023-04-06T11:00:54;6.72;;;2.00;;
50056;SDS011;36875;49.468;11.200;2023-04-06T11:03:20;4.97;;;1.73;;
50056;SDS011;36875;49.468;11.200;2023-04-06T11:05:47;4.60;;;2.10;;
50056;SDS011;36875;49.468;11.200;2023-04-06T11:08:24;5.50;;;1.80;;
50056;SDS011;36875;49.468;11.200;2023-04-06T11:10:51;3.75;;;1.67;;
50056;SDS011;36875;49.468;11.200;2023-04-06T11:13:16;8.82;;;2.17;;
50056;SDS011;36875;49.468;11.200;2023-04-06T11:15:42;4.10;;;1.73;;
50056;SDS011;36875;49.468;11.200;2023-04-06T11:18:09;5.20;;;1.83;;
50056;SDS011;36875;49.468;11.200;2023-04-06T11:20:36;3.08;;;1.63;;
50056;SDS011;36875;49.468;11.200;2023-04-06T11:23:01;3.15;;;1.60;;
50056;SDS011;36875;49.468;11.200;2023-04-06T11:25:28;3.63;;;1.77;;
50056;SDS011;36875;49.468;11.200;2023-04-06T11:27:56;3.78;;;1.63;;
50056;SDS011;36875;49.468;11.200;2023-04-06T11:30:22;5.55;;;1.67;;
50056;SDS011;36875;49.468;11.200;2023-04-06T11:32:48;4.10;;;1.80;;
50056;SDS011;36875;49.468;11.200;2023-04-06T11:35:20;5.13;;;2.20;;
50056;SDS011;36875;49.468;11.200;2023-04-06T11:37:48;7.65;;;1.83;;
50056;SDS011;36875;49.468;11.200;2023-04-06T11:40:14;4.32;;;1.98;;
50056;SDS011;36875;49.468;11.200;2023-04-06T11:47:42;3.80;;;1.60;;
50056;SDS011;36875;49.468;11.200;2023-04-06T11:50:08;3.92;;;1.98;;
50056;SDS011;36875;49.468;11.200;2023-04-06T11:52:36;3.13;;;1.73;;
50056;SDS011;36875;49.468;11.200;2023-04-06T11:55:10;5.25;;;1.85;;
50056;SDS011;36875;49.468;11.200;2023-04-06T11:57:36;3.63;;;1.77;;
50056;SDS011;36875;49.468;11.200;2023-04-06T12:00:05;4.85;;;1.83;;
50056;SDS011;36875;49.468;11.200;2023-04-06T12:02:31;8.32;;;2.13;;
50056;SDS011;36875;49.468;11.200;2023-04-06T12:04:57;4.45;;;2.03;;
50056;SDS011;36875;49.468;11.200;2023-04-06T12:07:22;4.70;;;1.80;;
50056;SDS011;36875;49.468;11.200;2023-04-06T12:09:49;6.57;;;1.92;;
50056;SDS011;36875;49.468;11.200;2023-04-06T12:12:15;5.38;;;1.80;;
50056;SDS011;36875;49.468;11.200;2023-04-06T12:14:41;4.82;;;1.67;;
50056;SDS011;36875;49.468;11.200;2023-04-06T12:17:06;5.18;;;1.70;;
50056;SDS011;36875;49.468;11.200;2023-04-06T12:19:32;2.55;;;1.80;;
50056;SDS011;36875;49.468;11.200;2023-04-06T12:21:57;2.97;;;1.40;;
50056;SDS011;36875;49.468;11.200;2023-04-06T12:24:23;3.65;;;1.45;;
50056;SDS011;36875;49.468;11.200;2023-04-06T12:26:50;2.97;;;1.52;;
50056;SDS011;36875;49.468;11.200;2023-04-06T12:29:15;4.15;;;1.67;;
50056;SDS011;36875;49.468;11.200;2023-04-06T12:31:41;2.83;;;1.42;;
50056;SDS011;36875;49.468;11.200;2023-04-06T12:34:09;6.55;;;1.73;;
50056;SDS011;36875;49.468;11.200;2023-04-06T12:36:36;4.82;;;1.70;;
50056;SDS011;36875;49.468;11.200;2023-04-06T12:39:02;5.80;;;1.85;;
50056;SDS011;36875;49.468;11.200;2023-04-06T12:41:28;4.05;;;1.52;;
50056;SDS011;36875;49.468;11.200;2023-04-06T12:43:56;4.95;;;1.50;;
50056;SDS011;36875;49.468;11.200;2023-04-06T12:46:21;4.00;;;1.58;;
50056;SDS011;36875;49.468;11.200;2023-04-06T12:48:48;2.95;;;1.60;;
50056;SDS011;36875;49.468;11.200;2023-04-06T12:51:14;3.28;;;1.42;;
50056;SDS011;36875;49.468;11.200;2023-04-06T12:53:40;3.97;;;1.60;;
50056;SDS011;36875;49.468;11.200;2023-04-06T12:56:11;2.80;;;1.50;;
50056;SDS011;36875;49.468;11.200;2023-04-06T12:58:38;3.25;;;1.70;;
50056;SDS011;36875;49.468;11.200;2023-04-06T13:01:09;2.97;;;1.42;;
50056;SDS011;36875;49.468;11.200;2023-04-06T13:03:34;2.55;;;1.48;;
50056;SDS011;36875;49.468;11.200;2023-04-06T13:06:00;4.80;;;1.73;;
50056;SDS011;36875;49.468;11.200;2023-04-06T13:08:26;4.30;;;1.63;;
50056;SDS011;36875;49.468;11.200;2023-04-06T13:10:52;3.33;;;1.63;;
50056;SDS011;36875;49.468;11.200;2023-04-06T13:13:22;3.20;;;1.30;;
50056;SDS011;36875;49.468;11.200;2023-04-06T13:15:48;3.90;;;1.52;;
50056;SDS011;36875;49.468;11.200;2023-04-06T13:18:15;2.63;;;1.33;;
50056;SDS011;36875;49.468;11.200;2023-04-06T13:20:41;2.42;;;1.50;;
50056;SDS011;36875;49.468;11.200;2023-04-06T13:23:07;2.63;;;1.60;;
50056;SDS011;36875;49.468;11.200;2023-04-06T13:25:33;1.65;;;1.10;;
50056;SDS011;36875;49.468;11.200;2023-04-06T13:27:59;2.45;;;1.30;;
50056;SDS011;36875;49.468;11.200;2023-04-06T13:30:25;3.53;;;1.30;;
50056;SDS011;36875;49.468;11.200;2023-04-06T13:32:51;4.35;;;1.40;;
50056;SDS011;36875;49.468;11.200;2023-04-06T13:35:18;2.85;;;1.25;;
50056;SDS011;36875;49.468;11.200;2023-04-06T13:37:44;2.40;;;1.30;;
50056;SDS011;36875;49.468;11.200;2023-04-06T13:40:10;3.13;;;1.35;;
50056;SDS011;36875;49.468;11.200;2023-04-06T13:42:36;2.38;;;1.50;;
50056;SDS011;36875;49.468;11.200;2023-04-06T13:45:05;2.85;;;1.60;;
50056;SDS011;36875;49.468;11.200;2023-04-06T13:47:31;1.90;;;1.35;;
50056;SDS011;36875;49.468;11.200;2023-04-06T13:49:57;3.20;;;1.40;;
50056;SDS011;36875;49.468;11.200;2023-04-06T13:52:24;3.60;;;1.60;;
50056;SDS011;36875;49.468;11.200;2023-04-06T13:54:49;2.97;;;1.40;;
50056;SDS011;36875;49.468;11.200;2023-04-06T13:57:15;2.00;;;1.05;;
50056;SDS011;36875;49.468;11.200;2023-04-06T13:59:41;2.75;;;1.33;;
50056;SDS011;36875;49.468;11.200;2023-04-06T14:02:07;3.30;;;1.27;;
50056;SDS011;36875;49.468;11.200;2023-04-06T14:04:34;2.85;;;1.55;;
50056;SDS011;36875;49.468;11.200;2023-04-06T14:07:00;2.40;;;1.20;;
50056;SDS011;36875;49.468;11.200;2023-04-06T14:09:28;2.58;;;1.33;;
50056;SDS011;36875;49.468;11.200;2023-04-06T14:11:55;1.52;;;1.27;;
50056;SDS011;36875;49.468;11.200;2023-04-06T14:14:21;4.43;;;1.58;;
50056;SDS011;36875;49.468;11.200;2023-04-06T14:16:47;2.10;;;1.40;;
50056;SDS011;36875;49.468;11.200;2023-04-06T14:19:14;2.47;;;1.27;;
50056;SDS011;36875;49.468;11.200;2023-04-06T14:21:42;1.95;;;1.30;;
50056;SDS011;36875;49.468;11.200;2023-04-06T14:24:08;1.75;;;1.20;;
50056;SDS011;36875;49.468;11.200;2023-04-06T14:26:36;2.15;;;1.25;;
50056;SDS011;36875;49.468;11.200;2023-04-06T14:29:02;2.92;;;1.40;;
50056;SDS011;36875;49.468;11.200;2023-04-06T14:31:27;2.15;;;1.23;;
50056;SDS011;36875;49.468;11.200;2023-04-06T14:33:53;2.15;;;1.00;;
50056;SDS011;36875;49.468;11.200;2023-04-06T14:36:18;2.40;;;1.08;;